sensor_id;sensor_type;location;lat;lon;timestamp;P1;durP1;ratioP1;P2;durP2;ratioP2
74530;SDS011;63010;55.668;37.878;2022-09-27T00:01:12;16.40;;;8.65;;
74530;SDS011;63010;55.668;37.878;2022-09-27T00:03:40;19.92;;;10.90;;
74530;SDS011;63010;55.668;37.878;2022-09-27T00:06:07;25.63;;;12.65;;
74530;SDS011;63010;55.668;37.878;2022-09-27T00:08:37;20.38;;;11.35;;
74530;SDS011;63010;55.668;37.878;2022-09-27T00:11:04;17.95;;;10.25;;
74530;SDS011;63010;55.668;37.878;2022-09-27T00:13:31;30.00;;;14.63;;
74530;SDS011;63010;55.668;37.878;2022-09-27T00:15:58;24.48;;;14.07;;
74530;SDS011;63010;55.668;37.878;2022-09-27T00:18:25;25.40;;;14.05;;
74530;SDS011;63010;55.668;37.878;2022-09-27T00:20:50;24.52;;;13.35;;
74530;SDS011;63010;55.668;37.878;2022-09-27T00:23:16;21.25;;;10.18;;
74530;SDS011;63010;55.668;37.878;2022-09-27T00:25:42;20.50;;;10.07;;
74530;SDS011;63010;55.668;37.878;2022-09-27T00:28:07;22.83;;;13.07;;
74530;SDS011;63010;55.668;37.878;2022-09-27T00:30:33;28.55;;;13.52;;
74530;SDS011;63010;55.668;37.878;2022-09-27T00:32:59;23.08;;;12.35;;
74530;SDS011;63010;55.668;37.878;2022-09-27T00:35:25;20.67;;;11.77;;
74530;SDS011;63010;55.668;37.878;2022-09-27T00:37:50;21.23;;;11.60;;
74530;SDS011;63010;55.668;37.878;2022-09-27T00:40:16;25.20;;;11.82;;
74530;SDS011;63010;55.668;37.878;2022-09-27T00:42:41;21.17;;;11.65;;
74530;SDS011;63010;55.668;37.878;2022-09-27T00:45:14;23.20;;;11.55;;
74530;SDS011;63010;55.668;37.878;2022-09-27T00:50:27;20.63;;;10.48;;
74530;SDS011;63010;55.668;37.878;2022-09-27T00:53:08;19.50;;;9.90;;
74530;SDS011;63010;55.668;37.878;2022-09-27T00:55:44;19.65;;;10.90;;
74530;SDS011;63010;55.668;37.878;2022-09-27T00:58:13;17.55;;;9.23;;
74530;SDS011;63010;55.668;37.878;2022-09-27T01:00:43;14.55;;;10.10;;
74530;SDS011;63010;55.668;37.878;2022-09-27T01:03:25;24.77;;;10.57;;
74530;SDS011;63010;55.668;37.878;2022-09-27T01:06:14;23.98;;;10.38;;
74530;SDS011;63010;55.668;37.878;2022-09-27T01:08:43;23.75;;;10.32;;
74530;SDS011;63010;55.668;37.878;2022-09-27T01:11:13;18.55;;;9.38;;
74530;SDS011;63010;55.668;37.878;2022-09-27T01:14:02;23.30;;;11.02;;
74530;SDS011;63010;55.668;37.878;2022-09-27T01:22:10;19.48;;;8.55;;
74530;SDS011;63010;55.668;37.878;2022-09-27T01:30:39;23.02;;;10.38;;
74530;SDS011;63010;55.668;37.878;2022-09-27T01:36:37;13.93;;;7.90;;
74530;SDS011;63010;55.668;37.878;2022-09-27T01:44:01;18.70;;;9.13;;
74530;SDS011;63010;55.668;37.878;2022-09-27T01:46:40;20.17;;;9.18;;
74530;SDS011;63010;55.668;37.878;2022-09-27T01:49:17;15.25;;;9.18;;
74530;SDS011;63010;55.668;37.878;2022-09-27T01:51:53;17.77;;;9.23;;
74530;SDS011;63010;55.668;37.878;2022-09-27T01:54:24;16.42;;;8.77;;
74530;SDS011;63010;55.668;37.878;2022-09-27T01:56:58;15.30;;;8.48;;
74530;SDS011;63010;55.668;37.878;2022-09-27T01:59:30;19.58;;;9.05;;
74530;SDS011;63010;55.668;37.878;2022-09-27T02:02:02;16.35;;;9.52;;
74530;SDS011;63010;55.668;37.878;2022-09-27T02:04:32;13.57;;;9.00;;
74530;SDS011;63010;55.668;37.878;2022-09-27T02:07:10;19.83;;;9.23;;
74530;SDS011;63010;55.668;37.878;2022-09-27T02:09:46;19.95;;;9.68;;
74530;SDS011;63010;55.668;37.878;2022-09-27T02:12:34;19.25;;;10.20;;
74530;SDS011;63010;55.668;37.878;2022-09-27T02:15:10;21.35;;;11.20;;
74530;SDS011;63010;55.668;37.878;2022-09-27T02:20:30;17.40;;;9.82;;
74530;SDS011;63010;55.668;37.878;2022-09-27T02:31:05;19.50;;;10.32;;
74530;SDS011;63010;55.668;37.878;2022-09-27T02:33:35;24.25;;;10.90;;
74530;SDS011;63010;55.668;37.878;2022-09-27T02:36:04;21.67;;;11.75;;
74530;SDS011;63010;55.668;37.878;2022-09-27T02:38:30;19.85;;;10.82;;
74530;SDS011;63010;55.668;37.878;2022-09-27T02:40:56;17.10;;;10.02;;
74530;SDS011;63010;55.668;37.878;2022-09-27T02:43:22;15.52;;;9.60;;
74530;SDS011;63010;55.668;37.878;2022-09-27T03:02:18;17.95;;;9.50;;
74530;SDS011;63010;55.668;37.878;2022-09-27T03:04:56;16.45;;;9.93;;
74530;SDS011;63010;55.668;37.878;2022-09-27T03:07:25;27.92;;;11.52;;
74530;SDS011;63010;55.668;37.878;2022-09-27T03:09:54;29.25;;;12.07;;
74530;SDS011;63010;55.668;37.878;2022-09-27T03:12:19;38.20;;;12.88;;
74530;SDS011;63010;55.668;37.878;2022-09-27T03:14:54;46.38;;;12.43;;
74530;SDS011;63010;55.668;37.878;2022-09-27T03:17:21;35.22;;;12.70;;
74530;SDS011;63010;55.668;37.878;2022-09-27T03:19:47;29.83;;;9.98;;
74530;SDS011;63010;55.668;37.878;2022-09-27T03:22:13;22.75;;;10.50;;
74530;SDS011;63010;55.668;37.878;2022-09-27T03:24:39;21.08;;;9.75;;
74530;SDS011;63010;55.668;37.878;2022-09-27T03:27:06;21.85;;;10.15;;
74530;SDS011;63010;55.668;37.878;2022-09-27T03:29:32;21.95;;;10.68;;
74530;SDS011;63010;55.668;37.878;2022-09-27T03:31:58;23.15;;;11.27;;
74530;SDS011;63010;55.668;37.878;2022-09-27T03:34:24;18.02;;;9.18;;
74530;SDS011;63010;55.668;37.878;2022-09-27T03:36:49;22.35;;;10.10;;
74530;SDS011;63010;55.668;37.878;2022-09-27T03:39:16;20.15;;;10.38;;
74530;SDS011;63010;55.668;37.878;2022-09-27T03:41:41;21.05;;;9.70;;
74530;SDS011;63010;55.668;37.878;2022-09-27T03:44:07;18.48;;;10.30;;
74530;SDS011;63010;55.668;37.878;2022-09-27T03:46:32;27.33;;;11.20;;
74530;SDS011;63010;55.668;37.878;2022-09-27T03:48:58;25.67;;;11.93;;
74530;SDS011;63010;55.668;37.878;2022-09-27T03:51:24;22.80;;;11.63;;
74530;SDS011;63010;55.668;37.878;2022-09-27T03:53:50;24.52;;;11.40;;
74530;SDS011;63010;55.668;37.878;2022-09-27T03:56:15;25.75;;;12.02;;
74530;SDS011;63010;55.668;37.878;2022-09-27T03:58:41;27.60;;;12.00;;
74530;SDS011;63010;55.668;37.878;2022-09-27T04:01:06;27.98;;;11.93;;
74530;SDS011;63010;55.668;37.878;2022-09-27T04:03:32;26.65;;;13.05;;
74530;SDS011;63010;55.668;37.878;2022-09-27T04:05:59;26.50;;;12.45;;
74530;SDS011;63010;55.668;37.878;2022-09-27T04:08:24;24.25;;;12.80;;
74530;SDS011;63010;55.668;37.878;2022-09-27T04:10:50;20.75;;;10.63;;
74530;SDS011;63010;55.668;37.878;2022-09-27T04:13:15;19.67;;;10.65;;
74530;SDS011;63010;55.668;37.878;2022-09-27T04:15:41;20.13;;;9.52;;
74530;SDS011;63010;55.668;37.878;2022-09-27T04:18:07;23.55;;;11.25;;
74530;SDS011;63010;55.668;37.878;2022-09-27T04:20:33;23.42;;;11.30;;
74530;SDS011;63010;55.668;37.878;2022-09-27T04:23:00;25.25;;;11.45;;
74530;SDS011;63010;55.668;37.878;2022-09-27T04:25:25;20.73;;;11.68;;
74530;SDS011;63010;55.668;37.878;2022-09-27T04:27:51;24.40;;;11.77;;
74530;SDS011;63010;55.668;37.878;2022-09-27T04:30:18;19.30;;;11.52;;
74530;SDS011;63010;55.668;37.878;2022-09-27T04:32:45;28.85;;;11.90;;
74530;SDS011;63010;55.668;37.878;2022-09-27T04:35:11;23.17;;;12.23;;
74530;SDS011;63010;55.668;37.878;2022-09-27T04:37:56;25.77;;;13.05;;
74530;SDS011;63010;55.668;37.878;2022-09-27T04:40:22;31.70;;;13.48;;
74530;SDS011;63010;55.668;37.878;2022-09-27T04:42:48;27.30;;;11.75;;
74530;SDS011;63010;55.668;37.878;2022-09-27T04:45:14;30.25;;;12.80;;
74530;SDS011;63010;55.668;37.878;2022-09-27T04:47:48;22.30;;;11.30;;
74530;SDS011;63010;55.668;37.878;2022-09-27T04:50:14;17.40;;;9.50;;
74530;SDS011;63010;55.668;37.878;2022-09-27T04:52:41;19.33;;;10.05;;
74530;SDS011;63010;55.668;37.878;2022-09-27T04:55:08;18.10;;;9.27;;
74530;SDS011;63010;55.668;37.878;2022-09-27T04:57:36;27.35;;;11.07;;
74530;SDS011;63010;55.668;37.878;2022-09-27T05:00:02;19.83;;;12.20;;
74530;SDS011;63010;55.668;37.878;2022-09-27T05:02:29;30.23;;;15.23;;
74530;SDS011;63010;55.668;37.878;2022-09-27T05:04:55;28.05;;;13.88;;
74530;SDS011;63010;55.668;37.878;2022-09-27T05:07:24;29.73;;;15.65;;
74530;SDS011;63010;55.668;37.878;2022-09-27T05:09:49;25.40;;;13.93;;
74530;SDS011;63010;55.668;37.878;2022-09-27T05:12:15;32.65;;;15.65;;
74530;SDS011;63010;55.668;37.878;2022-09-27T05:14:41;26.65;;;12.32;;
74530;SDS011;63010;55.668;37.878;2022-09-27T05:17:06;21.45;;;11.55;;
74530;SDS011;63010;55.668;37.878;2022-09-27T05:19:32;24.35;;;11.85;;
74530;SDS011;63010;55.668;37.878;2022-09-27T05:21:58;22.60;;;10.98;;
74530;SDS011;63010;55.668;37.878;2022-09-27T05:24:24;20.00;;;9.88;;
74530;SDS011;63010;55.668;37.878;2022-09-27T05:26:52;20.33;;;10.18;;
74530;SDS011;63010;55.668;37.878;2022-09-27T05:29:18;19.83;;;11.50;;
74530;SDS011;63010;55.668;37.878;2022-09-27T05:31:44;24.30;;;11.55;;
74530;SDS011;63010;55.668;37.878;2022-09-27T05:34:09;23.13;;;10.25;;
74530;SDS011;63010;55.668;37.878;2022-09-27T05:36:37;21.80;;;10.73;;
74530;SDS011;63010;55.668;37.878;2022-09-27T05:39:02;23.67;;;11.88;;
74530;SDS011;63010;55.668;37.878;2022-09-27T05:41:28;23.92;;;11.15;;
74530;SDS011;63010;55.668;37.878;2022-09-27T05:43:56;23.13;;;9.98;;
74530;SDS011;63010;55.668;37.878;2022-09-27T05:46:22;19.90;;;10.10;;
74530;SDS011;63010;55.668;37.878;2022-09-27T05:48:48;16.23;;;9.30;;
74530;SDS011;63010;55.668;37.878;2022-09-27T05:51:14;20.02;;;10.05;;
74530;SDS011;63010;55.668;37.878;2022-09-27T05:53:39;19.33;;;10.88;;
74530;SDS011;63010;55.668;37.878;2022-09-27T05:56:05;17.92;;;10.63;;
74530;SDS011;63010;55.668;37.878;2022-09-27T05:58:31;14.80;;;10.27;;
74530;SDS011;63010;55.668;37.878;2022-09-27T06:00:56;22.05;;;10.80;;
74530;SDS011;63010;55.668;37.878;2022-09-27T06:03:22;21.45;;;10.50;;
74530;SDS011;63010;55.668;37.878;2022-09-27T06:05:47;15.20;;;10.52;;
74530;SDS011;63010;55.668;37.878;2022-09-27T06:08:13;22.40;;;11.68;;
74530;SDS011;63010;55.668;37.878;2022-09-27T06:10:39;23.85;;;11.77;;
74530;SDS011;63010;55.668;37.878;2022-09-27T06:15:32;35.72;;;18.73;;
74530;SDS011;63010;55.668;37.878;2022-09-27T06:18:04;33.35;;;17.20;;
74530;SDS011;63010;55.668;37.878;2022-09-27T06:20:38;28.90;;;12.90;;
74530;SDS011;63010;55.668;37.878;2022-09-27T06:23:09;26.80;;;13.50;;
74530;SDS011;63010;55.668;37.878;2022-09-27T06:25:37;31.77;;;15.30;;
74530;SDS011;63010;55.668;37.878;2022-09-27T06:28:03;26.38;;;13.52;;
74530;SDS011;63010;55.668;37.878;2022-09-27T06:30:29;29.58;;;15.23;;
74530;SDS011;63010;55.668;37.878;2022-09-27T06:33:00;25.33;;;13.75;;
74530;SDS011;63010;55.668;37.878;2022-09-27T06:35:26;23.23;;;12.95;;
74530;SDS011;63010;55.668;37.878;2022-09-27T06:37:53;24.85;;;13.23;;
74530;SDS011;63010;55.668;37.878;2022-09-27T06:40:19;30.45;;;13.35;;
74530;SDS011;63010;55.668;37.878;2022-09-27T06:45:11;25.25;;;12.27;;
74530;SDS011;63010;55.668;37.878;2022-09-27T06:47:37;19.40;;;12.57;;
74530;SDS011;63010;55.668;37.878;2022-09-27T06:50:03;40.75;;;20.83;;
74530;SDS011;63010;55.668;37.878;2022-09-27T06:52:34;42.60;;;20.90;;
74530;SDS011;63010;55.668;37.878;2022-09-27T06:55:01;45.50;;;21.90;;
74530;SDS011;63010;55.668;37.878;2022-09-27T06:57:29;44.53;;;21.23;;
74530;SDS011;63010;55.668;37.878;2022-09-27T07:00:14;28.17;;;12.65;;
74530;SDS011;63010;55.668;37.878;2022-09-27T07:02:50;11.38;;;7.43;;
74530;SDS011;63010;55.668;37.878;2022-09-27T07:05:18;12.20;;;7.70;;
74530;SDS011;63010;55.668;37.878;2022-09-27T07:07:44;10.15;;;6.25;;
74530;SDS011;63010;55.668;37.878;2022-09-27T07:10:12;10.98;;;6.38;;
74530;SDS011;63010;55.668;37.878;2022-09-27T07:12:38;11.05;;;5.88;;
74530;SDS011;63010;55.668;37.878;2022-09-27T07:15:04;7.38;;;4.55;;
74530;SDS011;63010;55.668;37.878;2022-09-27T07:17:30;8.13;;;4.97;;
74530;SDS011;63010;55.668;37.878;2022-09-27T07:19:56;6.53;;;4.20;;
74530;SDS011;63010;55.668;37.878;2022-09-27T07:22:22;8.73;;;5.28;;
74530;SDS011;63010;55.668;37.878;2022-09-27T07:24:47;8.48;;;5.47;;
74530;SDS011;63010;55.668;37.878;2022-09-27T07:27:13;11.07;;;5.78;;
74530;SDS011;63010;55.668;37.878;2022-09-27T07:32:05;6.20;;;4.20;;
74530;SDS011;63010;55.668;37.878;2022-09-27T07:34:34;8.95;;;5.05;;
74530;SDS011;63010;55.668;37.878;2022-09-27T07:37:00;7.00;;;4.82;;
74530;SDS011;63010;55.668;37.878;2022-09-27T07:39:27;13.05;;;7.40;;
74530;SDS011;63010;55.668;37.878;2022-09-27T07:41:53;9.50;;;5.75;;
74530;SDS011;63010;55.668;37.878;2022-09-27T07:44:18;9.60;;;5.10;;
74530;SDS011;63010;55.668;37.878;2022-09-27T07:46:44;7.50;;;4.88;;
74530;SDS011;63010;55.668;37.878;2022-09-27T07:49:09;11.90;;;6.60;;
74530;SDS011;63010;55.668;37.878;2022-09-27T07:51:35;8.25;;;5.88;;
74530;SDS011;63010;55.668;37.878;2022-09-27T07:54:00;13.93;;;8.10;;
74530;SDS011;63010;55.668;37.878;2022-09-27T07:56:26;13.55;;;7.32;;
74530;SDS011;63010;55.668;37.878;2022-09-27T07:58:52;14.50;;;8.05;;
74530;SDS011;63010;55.668;37.878;2022-09-27T08:01:18;16.92;;;10.20;;
74530;SDS011;63010;55.668;37.878;2022-09-27T08:03:43;18.38;;;10.70;;
74530;SDS011;63010;55.668;37.878;2022-09-27T08:06:09;18.65;;;9.68;;
74530;SDS011;63010;55.668;37.878;2022-09-27T08:08:35;12.18;;;7.75;;
74530;SDS011;63010;55.668;37.878;2022-09-27T08:11:01;10.95;;;8.05;;
74530;SDS011;63010;55.668;37.878;2022-09-27T08:13:36;13.20;;;8.73;;
74530;SDS011;63010;55.668;37.878;2022-09-27T08:16:04;14.48;;;8.65;;
74530;SDS011;63010;55.668;37.878;2022-09-27T08:18:30;12.18;;;8.48;;
74530;SDS011;63010;55.668;37.878;2022-09-27T08:20:58;13.40;;;8.63;;
74530;SDS011;63010;55.668;37.878;2022-09-27T08:23:24;10.57;;;8.10;;
74530;SDS011;63010;55.668;37.878;2022-09-27T08:25:52;11.85;;;7.63;;
74530;SDS011;63010;55.668;37.878;2022-09-27T08:28:19;11.32;;;7.38;;
74530;SDS011;63010;55.668;37.878;2022-09-27T08:30:47;10.82;;;7.25;;
74530;SDS011;63010;55.668;37.878;2022-09-27T08:35:38;9.95;;;6.85;;
74530;SDS011;63010;55.668;37.878;2022-09-27T08:38:04;7.97;;;6.53;;
74530;SDS011;63010;55.668;37.878;2022-09-27T08:43:05;9.23;;;6.40;;
74530;SDS011;63010;55.668;37.878;2022-09-27T08:45:39;10.45;;;7.57;;
74530;SDS011;63010;55.668;37.878;2022-09-27T08:48:17;9.45;;;7.90;;
74530;SDS011;63010;55.668;37.878;2022-09-27T08:50:43;9.45;;;6.68;;
74530;SDS011;63010;55.668;37.878;2022-09-27T08:55:46;10.65;;;4.72;;
74530;SDS011;63010;55.668;37.878;2022-09-27T09:00:57;5.63;;;4.72;;
74530;SDS011;63010;55.668;37.878;2022-09-27T09:03:26;6.40;;;4.78;;
74530;SDS011;63010;55.668;37.878;2022-09-27T09:29:18;3.13;;;2.75;;
74530;SDS011;63010;55.668;37.878;2022-09-27T09:34:35;3.28;;;2.80;;
74530;SDS011;63010;55.668;37.878;2022-09-27T09:45:27;3.28;;;2.97;;
74530;SDS011;63010;55.668;37.878;2022-09-27T09:47:59;4.57;;;3.10;;
74530;SDS011;63010;55.668;37.878;2022-09-27T09:50:35;3.03;;;2.72;;
74530;SDS011;63010;55.668;37.878;2022-09-27T09:55:37;2.92;;;2.50;;
74530;SDS011;63010;55.668;37.878;2022-09-27T10:01:25;4.50;;;2.58;;
74530;SDS011;63010;55.668;37.878;2022-09-27T10:03:54;5.85;;;4.20;;
74530;SDS011;63010;55.668;37.878;2022-09-27T10:06:21;5.75;;;4.13;;
74530;SDS011;63010;55.668;37.878;2022-09-27T10:08:48;2.88;;;2.25;;
74530;SDS011;63010;55.668;37.878;2022-09-27T10:11:31;5.78;;;4.28;;
74530;SDS011;63010;55.668;37.878;2022-09-27T10:14:01;5.60;;;4.78;;
74530;SDS011;63010;55.668;37.878;2022-09-27T10:16:27;5.90;;;4.35;;
74530;SDS011;63010;55.668;37.878;2022-09-27T10:18:54;6.10;;;4.65;;
74530;SDS011;63010;55.668;37.878;2022-09-27T10:21:27;6.55;;;4.35;;
74530;SDS011;63010;55.668;37.878;2022-09-27T10:26:39;5.20;;;3.97;;
74530;SDS011;63010;55.668;37.878;2022-09-27T10:29:21;3.67;;;2.83;;
74530;SDS011;63010;55.668;37.878;2022-09-27T10:31:48;3.78;;;2.83;;
74530;SDS011;63010;55.668;37.878;2022-09-27T10:41:56;4.20;;;3.05;;
74530;SDS011;63010;55.668;37.878;2022-09-27T10:46:47;4.65;;;2.88;;
74530;SDS011;63010;55.668;37.878;2022-09-27T10:49:23;3.13;;;2.83;;
74530;SDS011;63010;55.668;37.878;2022-09-27T10:51:51;3.15;;;2.63;;
74530;SDS011;63010;55.668;37.878;2022-09-27T10:54:25;3.50;;;2.28;;
74530;SDS011;63010;55.668;37.878;2022-09-27T10:56:57;3.67;;;2.15;;
74530;SDS011;63010;55.668;37.878;2022-09-27T10:59:23;2.53;;;2.00;;
74530;SDS011;63010;55.668;37.878;2022-09-27T11:01:51;2.22;;;2.03;;
74530;SDS011;63010;55.668;37.878;2022-09-27T11:06:47;5.60;;;2.53;;
74530;SDS011;63010;55.668;37.878;2022-09-27T11:11:42;5.15;;;2.60;;
74530;SDS011;63010;55.668;37.878;2022-09-27T11:14:22;5.38;;;2.53;;
74530;SDS011;63010;55.668;37.878;2022-09-27T11:37:04;3.53;;;3.20;;
74530;SDS011;63010;55.668;37.878;2022-09-27T11:39:44;3.38;;;2.97;;
74530;SDS011;63010;55.668;37.878;2022-09-27T11:45:28;4.50;;;3.85;;
74530;SDS011;63010;55.668;37.878;2022-09-27T11:48:03;3.22;;;2.92;;
74530;SDS011;63010;55.668;37.878;2022-09-27T11:50:41;3.90;;;3.17;;
74530;SDS011;63010;55.668;37.878;2022-09-27T11:56:37;5.25;;;3.75;;
74530;SDS011;63010;55.668;37.878;2022-09-27T12:10:00;4.88;;;4.38;;
74530;SDS011;63010;55.668;37.878;2022-09-27T12:12:30;5.07;;;4.28;;
74530;SDS011;63010;55.668;37.878;2022-09-27T12:15:01;4.00;;;3.70;;
74530;SDS011;63010;55.668;37.878;2022-09-27T12:17:35;3.50;;;3.20;;
74530;SDS011;63010;55.668;37.878;2022-09-27T12:20:23;5.63;;;3.95;;
74530;SDS011;63010;55.668;37.878;2022-09-27T12:25:29;3.40;;;3.08;;
74530;SDS011;63010;55.668;37.878;2022-09-27T12:30:37;5.15;;;3.25;;
74530;SDS011;63010;55.668;37.878;2022-09-27T12:33:09;4.60;;;2.80;;
74530;SDS011;63010;55.668;37.878;2022-09-27T12:35:46;3.45;;;2.50;;
74530;SDS011;63010;55.668;37.878;2022-09-27T12:38:20;7.63;;;4.30;;
74530;SDS011;63010;55.668;37.878;2022-09-27T12:40:52;5.57;;;2.90;;
74530;SDS011;63010;55.668;37.878;2022-09-27T12:43:23;3.50;;;2.63;;
74530;SDS011;63010;55.668;37.878;2022-09-27T12:51:15;3.22;;;2.35;;
74530;SDS011;63010;55.668;37.878;2022-09-27T13:12:54;7.22;;;2.65;;
74530;SDS011;63010;55.668;37.878;2022-09-27T13:15:28;4.35;;;2.47;;
74530;SDS011;63010;55.668;37.878;2022-09-27T13:17:56;5.65;;;2.17;;
74530;SDS011;63010;55.668;37.878;2022-09-27T13:23:03;3.45;;;1.92;;
74530;SDS011;63010;55.668;37.878;2022-09-27T13:31:01;5.45;;;2.72;;
74530;SDS011;63010;55.668;37.878;2022-09-27T13:33:40;3.45;;;2.67;;
74530;SDS011;63010;55.668;37.878;2022-09-27T13:47:03;6.32;;;2.83;;
74530;SDS011;63010;55.668;37.878;2022-09-27T13:49:37;6.75;;;2.80;;
74530;SDS011;63010;55.668;37.878;2022-09-27T13:54:49;8.13;;;2.30;;
74530;SDS011;63010;55.668;37.878;2022-09-27T14:05:51;3.45;;;2.50;;
74530;SDS011;63010;55.668;37.878;2022-09-27T14:11:02;3.70;;;2.60;;
74530;SDS011;63010;55.668;37.878;2022-09-27T14:13:35;6.72;;;2.80;;
74530;SDS011;63010;55.668;37.878;2022-09-27T14:16:02;5.97;;;2.55;;
74530;SDS011;63010;55.668;37.878;2022-09-27T14:18:29;3.67;;;2.75;;
74530;SDS011;63010;55.668;37.878;2022-09-27T14:23:45;4.90;;;2.60;;
74530;SDS011;63010;55.668;37.878;2022-09-27T14:26:21;6.75;;;3.70;;
74530;SDS011;63010;55.668;37.878;2022-09-27T14:28:51;5.68;;;4.20;;
74530;SDS011;63010;55.668;37.878;2022-09-27T14:31:17;4.00;;;2.95;;
74530;SDS011;63010;55.668;37.878;2022-09-27T14:33:47;8.73;;;3.35;;
74530;SDS011;63010;55.668;37.878;2022-09-27T14:36:20;8.43;;;5.10;;
74530;SDS011;63010;55.668;37.878;2022-09-27T14:42:15;3.95;;;2.60;;
74530;SDS011;63010;55.668;37.878;2022-09-27T14:44:44;5.97;;;3.30;;
74530;SDS011;63010;55.668;37.878;2022-09-27T14:47:24;8.38;;;2.90;;
74530;SDS011;63010;55.668;37.878;2022-09-27T14:49:54;7.15;;;4.28;;
74530;SDS011;63010;55.668;37.878;2022-09-27T14:52:38;6.38;;;3.78;;
74530;SDS011;63010;55.668;37.878;2022-09-27T14:55:06;5.00;;;3.17;;
74530;SDS011;63010;55.668;37.878;2022-09-27T14:57:33;5.15;;;2.88;;
74530;SDS011;63010;55.668;37.878;2022-09-27T15:00:20;4.50;;;3.03;;
74530;SDS011;63010;55.668;37.878;2022-09-27T15:02:49;5.93;;;3.42;;
74530;SDS011;63010;55.668;37.878;2022-09-27T15:05:19;5.55;;;2.80;;
74530;SDS011;63010;55.668;37.878;2022-09-27T15:07:47;6.40;;;2.92;;
74530;SDS011;63010;55.668;37.878;2022-09-27T15:10:14;6.35;;;3.90;;
74530;SDS011;63010;55.668;37.878;2022-09-27T15:12:43;6.10;;;3.83;;
74530;SDS011;63010;55.668;37.878;2022-09-27T15:15:15;5.70;;;3.25;;
74530;SDS011;63010;55.668;37.878;2022-09-27T15:17:45;6.78;;;4.22;;
74530;SDS011;63010;55.668;37.878;2022-09-27T15:22:57;4.60;;;3.22;;
74530;SDS011;63010;55.668;37.878;2022-09-27T15:25:30;7.93;;;4.10;;
74530;SDS011;63010;55.668;37.878;2022-09-27T15:28:05;6.90;;;4.20;;
74530;SDS011;63010;55.668;37.878;2022-09-27T15:30:40;7.47;;;4.72;;
74530;SDS011;63010;55.668;37.878;2022-09-27T15:33:32;6.75;;;4.18;;
74530;SDS011;63010;55.668;37.878;2022-09-27T15:36:00;5.65;;;4.40;;
74530;SDS011;63010;55.668;37.878;2022-09-27T15:38:35;7.40;;;3.72;;
74530;SDS011;63010;55.668;37.878;2022-09-27T15:41:08;8.65;;;3.50;;
74530;SDS011;63010;55.668;37.878;2022-09-27T15:51:58;8.25;;;5.03;;
74530;SDS011;63010;55.668;37.878;2022-09-27T15:54:26;12.55;;;4.70;;
74530;SDS011;63010;55.668;37.878;2022-09-27T15:56:54;7.10;;;4.63;;
74530;SDS011;63010;55.668;37.878;2022-09-27T15:59:26;7.95;;;5.35;;
74530;SDS011;63010;55.668;37.878;2022-09-27T16:01:58;10.32;;;5.35;;
74530;SDS011;63010;55.668;37.878;2022-09-27T16:04:25;9.82;;;5.70;;
74530;SDS011;63010;55.668;37.878;2022-09-27T16:06:54;8.95;;;6.03;;
74530;SDS011;63010;55.668;37.878;2022-09-27T16:09:20;8.70;;;5.45;;
74530;SDS011;63010;55.668;37.878;2022-09-27T16:11:46;9.63;;;5.25;;
74530;SDS011;63010;55.668;37.878;2022-09-27T16:14:13;9.10;;;5.30;;
74530;SDS011;63010;55.668;37.878;2022-09-27T16:16:45;10.00;;;5.07;;
74530;SDS011;63010;55.668;37.878;2022-09-27T16:19:13;8.65;;;4.78;;
74530;SDS011;63010;55.668;37.878;2022-09-27T16:21:39;6.60;;;4.60;;
74530;SDS011;63010;55.668;37.878;2022-09-27T16:24:06;6.07;;;3.80;;
74530;SDS011;63010;55.668;37.878;2022-09-27T16:28:58;6.50;;;4.10;;
74530;SDS011;63010;55.668;37.878;2022-09-27T16:31:24;9.55;;;4.90;;
74530;SDS011;63010;55.668;37.878;2022-09-27T16:33:49;5.75;;;4.68;;
74530;SDS011;63010;55.668;37.878;2022-09-27T16:36:15;8.43;;;4.35;;
74530;SDS011;63010;55.668;37.878;2022-09-27T16:38:47;5.75;;;3.63;;
74530;SDS011;63010;55.668;37.878;2022-09-27T16:41:14;6.97;;;3.85;;
74530;SDS011;63010;55.668;37.878;2022-09-27T16:43:39;7.70;;;3.88;;
74530;SDS011;63010;55.668;37.878;2022-09-27T16:46:05;5.60;;;3.78;;
74530;SDS011;63010;55.668;37.878;2022-09-27T16:48:33;6.70;;;3.80;;
74530;SDS011;63010;55.668;37.878;2022-09-27T16:51:06;5.07;;;3.35;;
74530;SDS011;63010;55.668;37.878;2022-09-27T16:53:57;5.05;;;3.25;;
74530;SDS011;63010;55.668;37.878;2022-09-27T16:56:23;6.18;;;3.45;;
74530;SDS011;63010;55.668;37.878;2022-09-27T16:58:48;8.65;;;3.78;;
74530;SDS011;63010;55.668;37.878;2022-09-27T17:01:14;6.03;;;3.97;;
74530;SDS011;63010;55.668;37.878;2022-09-27T17:03:41;5.22;;;3.53;;
74530;SDS011;63010;55.668;37.878;2022-09-27T17:06:17;6.28;;;3.90;;
74530;SDS011;63010;55.668;37.878;2022-09-27T17:08:44;4.90;;;3.60;;
74530;SDS011;63010;55.668;37.878;2022-09-27T17:13:39;8.85;;;3.70;;
74530;SDS011;63010;55.668;37.878;2022-09-27T17:16:06;6.15;;;3.70;;
74530;SDS011;63010;55.668;37.878;2022-09-27T17:18:31;8.82;;;4.30;;
74530;SDS011;63010;55.668;37.878;2022-09-27T17:21:00;8.38;;;3.83;;
74530;SDS011;63010;55.668;37.878;2022-09-27T17:23:28;6.78;;;3.90;;
74530;SDS011;63010;55.668;37.878;2022-09-27T17:25:59;9.02;;;4.20;;
74530;SDS011;63010;55.668;37.878;2022-09-27T17:28:29;5.90;;;3.97;;
74530;SDS011;63010;55.668;37.878;2022-09-27T17:31:02;7.75;;;3.88;;
74530;SDS011;63010;55.668;37.878;2022-09-27T17:33:29;5.97;;;4.07;;
74530;SDS011;63010;55.668;37.878;2022-09-27T17:35:58;8.05;;;4.47;;
74530;SDS011;63010;55.668;37.878;2022-09-27T17:38:26;7.43;;;4.25;;
74530;SDS011;63010;55.668;37.878;2022-09-27T17:41:03;6.80;;;4.18;;
74530;SDS011;63010;55.668;37.878;2022-09-27T17:43:30;5.90;;;3.88;;
74530;SDS011;63010;55.668;37.878;2022-09-27T17:46:07;5.40;;;4.00;;
74530;SDS011;63010;55.668;37.878;2022-09-27T17:48:34;8.18;;;3.75;;
74530;SDS011;63010;55.668;37.878;2022-09-27T17:51:20;8.38;;;4.85;;
74530;SDS011;63010;55.668;37.878;2022-09-27T17:53:46;5.97;;;4.03;;
74530;SDS011;63010;55.668;37.878;2022-09-27T17:56:12;9.85;;;5.32;;
74530;SDS011;63010;55.668;37.878;2022-09-27T18:03:35;8.73;;;5.82;;
74530;SDS011;63010;55.668;37.878;2022-09-27T18:06:07;9.85;;;5.50;;
74530;SDS011;63010;55.668;37.878;2022-09-27T18:08:34;9.77;;;6.68;;
74530;SDS011;63010;55.668;37.878;2022-09-27T18:11:04;10.40;;;5.78;;
74530;SDS011;63010;55.668;37.878;2022-09-27T18:13:29;8.48;;;4.90;;
74530;SDS011;63010;55.668;37.878;2022-09-27T18:15:55;10.00;;;5.82;;
74530;SDS011;63010;55.668;37.878;2022-09-27T18:18:23;6.95;;;4.65;;
74530;SDS011;63010;55.668;37.878;2022-09-27T18:20:50;7.55;;;5.13;;
74530;SDS011;63010;55.668;37.878;2022-09-27T18:23:16;6.82;;;4.80;;
74530;SDS011;63010;55.668;37.878;2022-09-27T18:25:41;8.20;;;5.38;;
74530;SDS011;63010;55.668;37.878;2022-09-27T18:28:07;7.60;;;5.85;;
74530;SDS011;63010;55.668;37.878;2022-09-27T18:30:34;8.20;;;5.28;;
74530;SDS011;63010;55.668;37.878;2022-09-27T18:32:59;9.23;;;5.28;;
74530;SDS011;63010;55.668;37.878;2022-09-27T18:35:25;6.55;;;4.00;;
74530;SDS011;63010;55.668;37.878;2022-09-27T18:37:52;7.18;;;3.40;;
74530;SDS011;63010;55.668;37.878;2022-09-27T18:40:18;6.65;;;3.80;;
74530;SDS011;63010;55.668;37.878;2022-09-27T18:42:44;6.55;;;3.75;;
74530;SDS011;63010;55.668;37.878;2022-09-27T18:45:10;6.22;;;3.75;;
74530;SDS011;63010;55.668;37.878;2022-09-27T18:47:35;6.72;;;3.50;;